Time;durP1;ratioP1;P1;durP2;ratioP2;P2;SDS_P1;SDS_P2;PMS_P1;PMS_P2;Temp;Humidity;BMP_temperature;BMP_pressure;BME280_temperature;BME280_humidity;BME280_pressure;Samples;Min_cycle;Max_cycle;Signal;HPM_P1;HPM_P2
2022/05/30 00:02:11;;;;;;;;;1.00;0.00;;;;;11.36;63.57;99515.22;5057537;28;8985;-64
2022/05/30 00:04:39;;;;;;;;;0.50;0.50;;;;;11.37;64.30;99510.75;5057052;28;8846;-64
2022/05/30 00:07:06;;;;;;;;;0.00;0.00;;;;;11.37;64.44;99516.91;5057178;28;8842;-64
2022/05/30 00:09:34;;;;;;;;;1.00;1.00;;;;;11.36;64.21;99517.06;5057991;28;8845;-63
2022/05/30 00:12:02;;;;;;;;;0.50;0.50;;;;;11.37;63.98;99516.06;5057767;28;8856;-64
2022/05/30 00:14:30;;;;;;;;;1.00;1.00;;;;;11.38;64.20;99513.25;5057266;28;8882;-64
2022/05/30 00:16:57;;;;;;;;;1.00;1.00;;;;;11.39;63.89;99511.44;5057679;28;8964;-63
2022/05/30 00:19:25;;;;;;;;;0.50;0.00;;;;;11.41;63.83;99510.34;5057918;28;8873;-63
2022/05/30 00:21:53;;;;;;;;;1.00;1.00;;;;;11.42;63.59;99508.50;5058042;28;8822;-63
2022/05/30 00:24:21;;;;;;;;;3.00;1.50;;;;;11.43;64.03;99510.16;5058128;28;8849;-63
2022/05/30 00:26:48;;;;;;;;;1.00;1.00;;;;;11.43;63.91;99510.16;5049659;28;9023;-63
2022/05/30 00:29:16;;;;;;;;;2.00;2.00;;;;;11.42;63.33;99509.34;5051598;28;8839;-63
2022/05/30 00:31:44;;;;;;;;;2.00;2.00;;;;;11.42;63.68;99508.50;5058222;28;8856;-63
2022/05/30 00:34:12;;;;;;;;;2.50;1.50;;;;;11.41;63.48;99504.13;5057709;28;8827;-63
2022/05/30 00:36:39;;;;;;;;;1.00;1.00;;;;;11.42;64.14;99511.16;5058260;28;8850;-63
2022/05/30 00:39:07;;;;;;;;;0.75;0.50;;;;;11.40;63.93;99503.31;5057570;28;9626;-64
2022/05/30 00:41:35;;;;;;;;;3.50;3.00;;;;;11.38;64.00;99504.44;5057929;28;8822;-63
2022/05/30 00:44:03;;;;;;;;;1.00;1.00;;;;;11.35;63.93;99505.53;5057790;28;8981;-63
2022/05/30 00:46:30;;;;;;;;;0.50;0.50;;;;;11.33;63.92;99499.50;5057994;28;8836;-63
2022/05/30 00:48:58;;;;;;;;;3.00;3.00;;;;;11.32;64.52;99492.50;5057123;28;8862;-62
2022/05/30 00:51:27;;;;;;;;;1.00;1.00;;;;;11.31;64.14;99493.44;5057807;28;8967;-63
2022/05/30 00:53:55;;;;;;;;;0.00;0.00;;;;;11.30;64.41;99491.78;5057684;28;8845;-63
2022/05/30 00:56:22;;;;;;;;;0.00;0.00;;;;;11.29;64.21;99497.25;5050457;28;8939;-64
2022/05/30 00:58:50;;;;;;;;;0.00;0.00;;;;;11.28;64.59;99495.56;5037092;28;8856;-64
2022/05/30 01:01:20;;;;;;;;;1.00;1.00;;;;;11.26;64.26;99493.03;5037379;28;8845;-64
2022/05/30 01:06:33;;;;;;;;;1.00;1.00;;;;;11.27;64.16;99497.38;5037298;28;8901;-64
2022/05/30 01:09:01;;;;;;;;;1.00;1.00;;;;;11.29;64.12;99497.25;5037331;28;8848;-64
2022/05/30 01:11:29;;;;;;;;;3.00;1.00;;;;;11.30;64.36;99498.94;5037360;28;8971;-64
2022/05/30 01:13:56;;;;;;;;;2.00;1.00;;;;;11.29;64.05;99497.25;5037317;28;8884;-64
2022/05/30 01:16:24;;;;;;;;;1.00;1.00;;;;;11.28;64.35;99504.41;5036827;28;8848;-64
2022/05/30 01:18:52;;;;;;;;;1.00;0.00;;;;;11.26;64.51;99493.03;5035105;28;8855;-64
2022/05/30 01:21:20;;;;;;;;;0.00;0.00;;;;;11.25;64.62;99490.50;5036506;28;8840;-68
2022/05/30 01:23:48;;;;;;;;;2.00;1.00;;;;;11.24;64.25;99492.31;5037073;28;8974;-63
2022/05/30 01:26:16;;;;;;;;;1.00;1.00;;;;;11.23;64.41;99489.81;5041656;28;8978;-63
2022/05/30 01:28:44;;;;;;;;;2.00;1.00;;;;;11.21;64.64;99483.78;5057093;28;8851;-64
2022/05/30 01:31:12;;;;;;;;;1.00;1.00;;;;;11.17;64.42;99480.56;5056737;28;8830;-63
2022/05/30 01:33:40;;;;;;;;;1.50;1.00;;;;;11.15;64.96;99479.81;5056618;28;8846;-68
2022/05/30 01:36:07;;;;;;;;;2.50;1.00;;;;;11.13;64.84;99481.78;5056614;28;8861;-64
2022/05/30 01:38:35;;;;;;;;;0.50;0.50;;;;;11.11;64.41;99474.91;5056644;28;8912;-64
2022/05/30 01:41:03;;;;;;;;;1.00;1.00;;;;;11.10;64.26;99479.41;5056626;28;8964;-63
2022/05/30 01:43:31;;;;;;;;;0.00;0.00;;;;;11.09;64.69;99476.88;5056891;28;8880;-64
2022/05/30 01:45:59;;;;;;;;;1.00;1.00;;;;;11.09;64.61;99482.19;5056582;28;9559;-64
2022/05/30 01:48:26;;;;;;;;;2.50;2.50;;;;;11.09;64.75;99479.53;5056272;28;8870;-64
2022/05/30 01:50:57;;;;;;;;;1.00;1.00;;;;;11.10;64.85;99473.22;5056700;28;8892;-64
2022/05/30 01:53:24;;;;;;;;;1.00;0.75;;;;;11.10;64.58;99475.88;5055999;28;8838;-63
2022/05/30 01:55:52;;;;;;;;;2.00;1.00;;;;;11.09;64.67;99475.03;5054345;28;8830;-64
2022/05/30 01:58:20;;;;;;;;;1.00;1.00;;;;;11.09;64.86;99469.69;5036527;28;9827;-64
2022/05/30 02:00:47;;;;;;;;;1.00;1.00;;;;;11.10;64.63;99473.22;5036774;28;8836;-64
2022/05/30 02:03:15;;;;;;;;;3.00;1.50;;;;;11.08;64.80;99467.19;5036514;28;8844;-64
2022/05/30 02:05:44;;;;;;;;;0.50;0.50;;;;;11.03;65.13;99462.28;5036032;28;8836;-64
2022/05/30 02:08:16;;;;;;;;;0.50;0.50;;;;;10.98;65.42;99466.31;5037342;28;8951;-63
2022/05/30 02:10:44;;;;;;;;;1.00;1.00;;;;;10.93;65.04;99463.22;5036229;28;8836;-64
2022/05/30 02:13:11;;;;;;;;;3.00;3.00;;;;;10.89;65.11;99467.13;5036318;28;8857;-64
2022/05/30 02:18:20;;;;;;;;;0.75;0.75;;;;;10.83;65.37;99473.84;5035111;28;8836;-63
2022/05/30 02:20:48;;;;;;;;;1.00;0.00;;;;;10.81;65.39;99469.63;5036239;28;8885;-64
2022/05/30 02:23:17;;;;;;;;;1.00;1.00;;;;;10.80;65.47;99471.47;5036423;28;8844;-64
2022/05/30 02:25:44;;;;;;;;;1.00;1.00;;;;;10.79;65.71;99471.59;5035485;28;9649;-63
2022/05/30 02:28:12;;;;;;;;;1.50;1.50;;;;;10.80;65.62;99468.81;5055189;28;8806;-64
2022/05/30 02:30:40;;;;;;;;;1.50;1.50;;;;;10.83;65.58;99473.84;5055644;28;8846;-64
2022/05/30 02:38:53;;;;;;;;;3.00;1.00;;;;;10.93;65.29;99469.38;4994043;28;8912;-64
2022/05/30 02:41:21;;;;;;;;;1.00;1.00;;;;;10.93;65.15;99472.03;4994665;28;8858;-64
2022/05/30 02:43:50;;;;;;;;;2.00;2.00;;;;;10.93;65.45;99461.38;5021604;28;8858;-64
2022/05/30 02:46:18;;;;;;;;;1.00;1.00;;;;;10.94;64.81;99473.72;5055537;28;8953;-63
2022/05/30 02:48:46;;;;;;;;;1.00;1.00;;;;;10.92;65.10;99475.69;5055633;28;8841;-65
2022/05/30 02:51:14;;;;;;;;;0.75;0.75;;;;;10.90;65.43;99475.00;5055568;28;8822;-64
2022/05/30 02:53:41;;;;;;;;;1.50;0.75;;;;;10.91;65.17;99471.34;5056034;28;8831;-64
2022/05/30 02:56:13;;;;;;;;;0.75;0.75;;;;;10.90;65.34;99471.47;5051000;28;8839;-64
2022/05/30 02:58:42;;;;;;;;;1.00;0.50;;;;;10.88;65.34;99470.78;5035365;28;8840;-64
2022/05/30 03:01:10;;;;;;;;;0.25;0.25;;;;;10.87;65.45;99472.63;5036038;28;8862;-65
2022/05/30 03:03:38;;;;;;;;;3.00;1.00;;;;;10.90;65.30;99468.81;5035917;28;8941;-64
2022/05/30 03:06:06;;;;;;;;;1.00;1.00;;;;;10.90;65.29;99464.34;5035204;28;8974;-64
2022/05/30 03:08:33;;;;;;;;;3.50;1.00;;;;;10.92;65.48;99466.88;5035309;28;8820;-63
2022/05/30 03:11:01;;;;;;;;;1.00;1.00;;;;;10.90;65.30;99476.81;5035285;28;8856;-64
2022/05/30 03:13:29;;;;;;;;;1.00;1.00;;;;;10.88;65.36;99476.97;5035317;28;8849;-64
2022/05/30 03:15:58;;;;;;;;;1.00;1.00;;;;;10.88;65.36;99471.63;5035497;28;8837;-63
2022/05/30 03:18:26;;;;;;;;;1.00;1.00;;;;;10.86;65.84;99473.56;5035406;28;8895;-63
2022/05/30 03:20:54;;;;;;;;;3.00;1.50;;;;;10.87;65.84;99474.41;5035472;28;8913;-63
2022/05/30 03:23:22;;;;;;;;;0.50;0.00;;;;;10.88;65.65;99476.97;5035355;28;9479;-64
2022/05/30 03:25:49;;;;;;;;;1.00;1.00;;;;;10.90;65.79;99484.78;5035801;28;9505;-64
2022/05/30 03:28:17;;;;;;;;;1.00;1.00;;;;;10.91;65.93;99483.84;5055438;28;8884;-64
2022/05/30 03:30:45;;;;;;;;;0.50;0.50;;;;;10.91;65.46;99482.00;5055058;28;8837;-64
2022/05/30 03:33:13;;;;;;;;;1.50;1.50;;;;;10.92;65.45;99483.69;5055443;28;8849;-64
2022/05/30 03:35:41;;;;;;;;;0.00;0.00;;;;;10.92;65.57;99483.69;5054964;28;8838;-63
2022/05/30 03:38:08;;;;;;;;;1.00;1.00;;;;;10.90;65.19;99484.78;5054886;28;8960;-63
2022/05/30 03:40:38;;;;;;;;;6.75;4.25;;;;;10.89;65.30;99486.63;5055424;28;8838;-63
2022/05/30 03:43:07;;;;;;;;;0.50;0.50;;;;;10.89;65.54;99485.78;5055037;28;8843;-64
2022/05/30 03:45:35;;;;;;;;;1.00;1.00;;;;;10.87;65.49;99485.94;5054279;28;8823;-64
2022/05/30 03:48:02;;;;;;;;;0.00;0.00;;;;;10.89;65.90;99493.75;5054596;28;8846;-64
2022/05/30 03:50:30;;;;;;;;;0.75;0.75;;;;;10.90;65.51;99495.44;5057255;28;8818;-63
2022/05/30 03:53:04;;;;;;;;;1.00;1.00;;;;;10.90;65.31;99490.13;5059055;28;9004;-64
2022/05/30 03:55:32;;;;;;;;;1.00;1.00;;;;;10.90;65.18;99490.97;5057885;28;8830;-63
2022/05/30 03:58:01;;;;;;;;;2.50;2.50;;;;;10.90;65.40;99495.44;5038399;28;8968;-63
2022/05/30 04:00:28;;;;;;;;;3.00;3.00;;;;;10.89;65.34;99485.78;5038621;28;8845;-65
2022/05/30 04:02:56;;;;;;;;;1.00;1.00;;;;;10.89;65.56;99494.63;5038038;28;9679;-64
2022/05/30 04:05:24;;;;;;;;;1.00;1.00;;;;;10.90;65.65;99484.78;5038093;28;8914;-63
2022/05/30 04:07:52;;;;;;;;;1.00;1.00;;;;;10.93;65.44;99488.03;5038136;28;8832;-63
2022/05/30 04:10:20;;;;;;;;;1.00;1.00;;;;;10.94;65.33;99489.72;5038103;28;9521;-63
2022/05/30 04:12:47;;;;;;;;;1.00;1.00;;;;;10.96;65.47;99478.94;5037408;28;8876;-64
2022/05/30 04:15:15;;;;;;;;;1.00;1.00;;;;;10.97;65.62;99486.78;5037821;28;8840;-63
2022/05/30 04:17:43;;;;;;;;;1.00;1.00;;;;;11.00;65.28;99488.34;5038390;28;8836;-63
2022/05/30 04:20:11;;;;;;;;;1.00;1.00;;;;;11.00;64.94;99483.84;5038014;28;8836;-63
2022/05/30 04:22:38;;;;;;;;;2.00;1.50;;;;;11.03;65.04;99491.59;5037811;28;8840;-63
2022/05/30 04:25:06;;;;;;;;;3.25;1.50;;;;;11.07;65.60;99492.97;5038107;28;8845;-63
2022/05/30 04:27:34;;;;;;;;;0.50;0.50;;;;;11.09;65.04;99479.53;5054194;28;8955;-63
2022/05/30 04:30:02;;;;;;;;;3.00;2.50;;;;;11.12;65.13;99484.56;5057802;28;8984;-63
2022/05/30 04:32:30;;;;;;;;;2.50;2.50;;;;;11.14;64.78;99480.81;5057861;28;8935;-64
2022/05/30 04:34:57;;;;;;;;;1.00;1.00;;;;;11.20;65.04;99493.59;5057630;28;8858;-63
2022/05/30 04:37:25;;;;;;;;;1.00;1.00;;;;;11.23;64.94;99489.81;5057896;28;8972;-63
2022/05/30 04:39:53;;;;;;;;;1.00;1.00;;;;;11.26;64.63;99489.53;5057491;28;8916;-63
2022/05/30 04:42:21;;;;;;;;;0.25;0.25;;;;;11.27;65.03;99493.88;5057412;28;8877;-64
2022/05/30 04:44:48;;;;;;;;;3.50;2.00;;;;;11.27;64.78;99500.06;5052393;28;8837;-63
2022/05/30 04:47:16;;;;;;;;;0.75;0.75;;;;;11.29;64.74;99494.59;5036506;28;8818;-64
2022/05/30 04:49:46;;;;;;;;;0.00;0.00;;;;;11.30;65.12;99493.63;5036710;28;8963;-64
2022/05/30 04:52:15;;;;;;;;;1.50;1.50;;;;;11.31;65.40;99492.63;5037930;28;8906;-63
2022/05/30 04:54:43;;;;;;;;;1.00;1.00;;;;;11.31;64.92;99496.13;5037154;28;8836;-63
2022/05/30 04:57:10;;;;;;;;;3.25;1.50;;;;;11.34;64.78;99497.66;5037343;28;8946;-64
2022/05/30 04:59:38;;;;;;;;;3.00;2.00;;;;;11.36;64.76;99501.06;5037134;28;8852;-63
2022/05/30 05:02:06;;;;;;;;;1.50;0.50;;;;;11.38;64.91;99502.59;5036507;28;8854;-63
2022/05/30 05:04:34;;;;;;;;;0.75;0.00;;;;;11.40;64.68;99505.13;5036920;28;8929;-64
2022/05/30 05:07:01;;;;;;;;;1.00;1.00;;;;;11.45;64.95;99509.06;5035588;28;8983;-63
2022/05/30 05:09:31;;;;;;;;;3.00;1.00;;;;;11.52;65.11;99507.53;5035225;28;8902;-63
2022/05/30 05:11:58;;;;;;;;;0.75;0.75;;;;;11.59;64.23;99514.03;5036641;28;8986;-63
2022/05/30 05:14:26;;;;;;;;;1.00;1.00;;;;;11.61;64.39;99504.06;5036273;28;8990;-63
2022/05/30 05:16:54;;;;;;;;;2.50;1.50;;;;;11.63;64.60;99501.25;5055993;28;8833;-65
2022/05/30 05:19:22;;;;;;;;;1.00;1.00;;;;;11.67;64.21;99503.50;5041025;28;8832;-63
2022/05/30 05:21:51;;;;;;;;;0.00;0.00;;;;;11.73;64.50;99507.41;5036850;28;8926;-63
2022/05/30 05:24:18;;;;;;;;;3.00;3.00;;;;;11.80;64.38;99505.88;5035819;28;8925;-63
2022/05/30 05:26:46;;;;;;;;;3.00;2.50;;;;;11.83;63.69;99514.44;5035431;28;9536;-63
2022/05/30 05:29:14;;;;;;;;;1.00;1.00;;;;;11.89;64.04;99508.56;5035803;28;8864;-64
2022/05/30 05:31:42;;;;;;;;;1.00;0.50;;;;;11.93;64.00;99510.81;5035002;28;8852;-63
2022/05/30 05:34:10;;;;;;;;;3.00;3.00;;;;;11.97;63.62;99519.38;5040930;28;8862;-64
2022/05/30 05:36:37;;;;;;;;;0.50;0.50;;;;;12.00;63.58;99519.09;5043873;28;8952;-63
2022/05/30 05:39:05;;;;;;;;;3.00;2.00;;;;;12.01;63.95;99515.44;5054375;28;8866;-64
2022/05/30 05:41:33;;;;;;;;;0.75;0.75;;;;;12.05;63.92;99519.50;5043685;28;8849;-64
2022/05/30 05:44:01;;;;;;;;;3.00;0.75;;;;;12.09;63.85;99519.06;5043851;28;8876;-63
2022/05/30 05:46:28;;;;;;;;;1.00;1.00;;;;;12.15;63.42;99518.50;5055483;28;8975;-63
2022/05/30 05:48:56;;;;;;;;;0.25;0.25;;;;;12.19;63.21;99519.06;5055139;28;8884;-63
2022/05/30 05:51:24;;;;;;;;;1.00;1.00;;;;;12.19;63.17;99511.91;5055476;28;8880;-63
2022/05/30 05:53:53;;;;;;;;;3.00;2.00;;;;;12.22;63.65;99521.44;5055802;28;8826;-63
2022/05/30 05:56:21;;;;;;;;;4.00;3.00;;;;;12.24;63.09;99514.97;5055136;28;8826;-65
2022/05/30 05:58:49;;;;;;;;;2.50;2.50;;;;;12.27;63.57;99519.19;5054049;28;8853;-63
2022/05/30 06:01:17;;;;;;;;;1.00;1.00;;;;;12.31;63.40;99516.09;5054835;28;8984;-64
2022/05/30 06:03:45;;;;;;;;;1.00;1.00;;;;;12.37;63.80;99526.22;5050931;28;8910;-63
2022/05/30 06:06:12;;;;;;;;;3.75;3.75;;;;;12.45;63.08;99522.84;5034418;28;8862;-63
2022/05/30 06:08:40;;;;;;;;;2.50;2.50;;;;;12.52;62.93;99529.25;5034321;28;8820;-66
2022/05/30 06:11:11;;;;;;;;;2.50;2.50;;;;;12.61;62.56;99531.91;5034106;28;8998;-64
2022/05/30 06:13:39;;;;;;;;;3.00;3.00;;;;;12.67;62.59;99527.81;5033640;28;8849;-63
2022/05/30 06:16:07;;;;;;;;;0.50;0.50;;;;;12.72;62.56;99526.41;5034662;28;8850;-66
2022/05/30 06:18:34;;;;;;;;;3.50;2.00;;;;;12.79;62.35;99526.66;5034544;28;8844;-63
2022/05/30 06:21:03;;;;;;;;;3.00;3.00;;;;;12.83;62.43;99531.56;5033994;28;8844;-64
2022/05/30 06:23:30;;;;;;;;;0.75;0.75;;;;;12.90;61.75;99535.34;5034048;28;8852;-63
2022/05/30 06:26:01;;;;;;;;;1.00;0.50;;;;;12.97;62.18;99525.78;5034016;28;8875;-64
2022/05/30 06:28:29;;;;;;;;;1.00;1.00;;;;;13.02;62.50;99533.34;5034339;28;8986;-64
2022/05/30 06:30:57;;;;;;;;;1.50;1.50;;;;;13.08;62.09;99536.25;5034237;28;8855;-63
2022/05/30 06:33:25;;;;;;;;;1.00;1.00;;;;;13.12;61.55;99539.47;5045298;28;8965;-63
2022/05/30 06:35:52;;;;;;;;;0.75;0.75;;;;;13.12;61.55;99539.47;5054144;28;8848;-63
2022/05/30 06:38:20;;;;;;;;;1.00;1.00;;;;;13.10;61.66;99536.13;5054439;28;8842;-63
2022/05/30 06:40:49;;;;;;;;;1.00;1.00;;;;;13.16;62.20;99540.88;5053894;28;8858;-63
2022/05/30 06:43:16;;;;;;;;;0.00;0.00;;;;;13.22;61.18;99542.97;5048147;28;8835;-64
2022/05/30 06:45:44;;;;;;;;;0.25;0.25;;;;;13.29;61.54;99541.38;5034736;28;8831;-64
2022/05/30 06:48:13;;;;;;;;;1.00;1.00;;;;;13.34;61.35;99544.44;5034310;28;8911;-64
2022/05/30 06:50:40;;;;;;;;;1.00;1.00;;;;;13.36;61.43;99543.31;5035434;28;8833;-63
2022/05/30 06:53:08;;;;;;;;;0.00;0.00;;;;;13.37;61.47;99544.97;5035027;28;8865;-64
2022/05/30 06:55:36;;;;;;;;;1.00;1.00;;;;;13.38;61.17;99548.50;5035039;28;8848;-64
2022/05/30 06:58:13;;;;;;;;;3.00;3.00;;;;;13.44;61.23;99550.59;5035154;28;8855;-64
2022/05/30 07:00:41;;;;;;;;;2.00;1.00;;;;;13.51;61.23;99546.34;5034425;28;8867;-64
2022/05/30 07:03:09;;;;;;;;;3.75;3.75;;;;;13.60;61.22;99546.25;5034400;28;8868;-64
2022/05/30 07:05:36;;;;;;;;;1.00;1.00;;;;;13.71;60.97;99548.72;5034324;28;8844;-63
2022/05/30 07:08:04;;;;;;;;;1.00;1.00;;;;;13.80;60.67;99549.63;5034089;28;8848;-64
2022/05/30 07:10:32;;;;;;;;;2.50;1.00;;;;;13.83;60.82;99542.13;5034678;28;8995;-64
2022/05/30 07:13:00;;;;;;;;;4.00;4.00;;;;;13.87;60.72;99550.72;5035554;28;8853;-64
2022/05/30 07:15:28;;;;;;;;;1.50;1.50;;;;;13.97;60.69;99551.50;5054479;28;8977;-64
2022/05/30 07:17:55;;;;;;;;;3.00;3.00;;;;;14.07;60.23;99545.06;5054481;28;8924;-64
2022/05/30 07:20:23;;;;;;;;;3.75;3.00;;;;;14.15;60.00;99557.69;5053946;28;8838;-64
2022/05/30 07:22:51;;;;;;;;;1.00;1.00;;;;;14.26;59.39;99560.16;5054015;28;8846;-64
2022/05/30 07:25:19;;;;;;;;;6.00;4.00;;;;;14.32;59.80;99557.69;5057313;28;8884;-65
2022/05/30 07:27:48;;;;;;;;;1.50;1.00;;;;;14.40;59.54;99559.59;5057097;28;8838;-64
2022/05/30 07:30:16;;;;;;;;;2.00;1.00;;;;;14.51;59.04;99564.72;5057369;28;8827;-64
2022/05/30 07:32:43;;;;;;;;;0.50;0.00;;;;;14.60;59.16;99558.41;5056839;28;8848;-65
2022/05/30 07:35:11;;;;;;;;;1.00;1.00;;;;;14.64;58.74;99565.16;5057345;28;8924;-64
2022/05/30 07:37:42;;;;;;;;;1.00;1.00;;;;;14.72;59.10;99559.84;5056928;28;8858;-64
2022/05/30 07:40:10;;;;;;;;;1.00;1.00;;;;;14.88;59.10;99562.63;5057321;28;8973;-64
2022/05/30 07:42:37;;;;;;;;;2.50;2.50;;;;;14.93;58.42;99555.78;5055851;28;8872;-64
2022/05/30 07:45:05;;;;;;;;;1.00;1.00;;;;;14.90;58.56;99557.94;5039456;28;8851;-64
2022/05/30 07:47:32;;;;;;;;;1.00;1.00;;;;;14.84;58.58;99558.56;5056174;28;8937;-65
2022/05/30 07:50:02;;;;;;;;;5.00;5.00;;;;;14.78;58.79;99553.84;5056632;28;8856;-65
2022/05/30 07:52:30;;;;;;;;;7.25;6.50;;;;;14.73;58.96;99554.31;5056308;28;8838;-64
2022/05/30 07:54:58;;;;;;;;;4.75;4.00;;;;;14.63;59.39;99556.25;5055613;28;8842;-65
2022/05/30 08:00:07;;;;;;;;;3.00;3.00;;;;;14.36;60.19;99561.75;5035747;28;8860;-64
2022/05/30 08:02:35;;;;;;;;;1.00;1.00;;;;;14.23;60.49;99557.78;5036053;28;8852;-64
2022/05/30 08:05:08;;;;;;;;;1.00;1.00;;;;;14.13;60.71;99559.69;5036837;28;8848;-64
2022/05/30 08:07:35;;;;;;;;;0.00;0.00;;;;;14.07;60.28;99566.50;5036735;28;8848;-64
2022/05/30 08:10:03;;;;;;;;;1.50;1.00;;;;;14.05;60.06;99567.63;5046080;28;8848;-64
2022/05/30 08:12:31;;;;;;;;;1.50;1.50;;;;;14.07;60.63;99568.31;5048481;28;8960;-64
2022/05/30 08:14:58;;;;;;;;;2.50;2.00;;;;;14.10;60.42;99563.50;5056440;28;8966;-65
2022/05/30 08:17:26;;;;;;;;;3.00;3.00;;;;;14.12;60.00;99563.34;5043358;28;8809;-64
2022/05/30 08:19:54;;;;;;;;;3.00;3.00;;;;;14.06;60.69;99570.16;5041556;28;8874;-65
2022/05/30 08:22:23;;;;;;;;;4.00;3.75;;;;;14.06;60.13;99572.00;5035306;28;8868;-64
2022/05/30 08:24:51;;;;;;;;;8.25;6.50;;;;;14.10;60.13;99565.31;5048192;28;9472;-64
2022/05/30 08:27:19;;;;;;;;;3.75;2.75;;;;;14.17;60.11;99567.25;5055702;28;9616;-64
2022/05/30 08:29:47;;;;;;;;;6.00;5.75;;;;;14.26;59.54;99570.88;5038020;28;8840;-63
2022/05/30 08:32:15;;;;;;;;;6.00;6.00;;;;;14.37;59.07;99573.31;5036101;28;8975;-64
2022/05/30 08:34:43;;;;;;;;;7.75;7.25;;;;;14.47;58.92;99574.91;5035646;28;9522;-63
2022/05/30 08:37:11;;;;;;;;;9.25;9.25;;;;;14.57;59.10;99572.13;5035923;28;9402;-64
2022/05/30 08:42:28;;;;;;;;;8.00;7.00;;;;;15.19;57.35;99572.72;5046471;28;8870;-64
2022/05/30 08:44:56;;;;;;;;;6.50;6.50;;;;;15.57;56.65;99568.69;5037240;28;8818;-64
2022/05/30 08:47:24;;;;;;;;;11.50;10.00;;;;;15.90;56.01;99565.09;5041511;28;9518;-63
2022/05/30 08:49:52;;;;;;;;;7.00;6.00;;;;;16.02;55.85;99561.09;5043626;28;8828;-63
2022/05/30 08:52:20;;;;;;;;;9.00;9.00;;;;;15.99;56.08;99564.94;5043981;28;8900;-64
2022/05/30 08:54:51;;;;;;;;;3.75;3.50;;;;;15.89;56.26;99571.47;5053448;28;8856;-64
2022/05/30 08:57:18;;;;;;;;;3.50;3.50;;;;;15.68;56.88;99571.91;5041853;28;8845;-66
2022/05/30 08:59:46;;;;;;;;;6.50;6.00;;;;;15.50;57.38;99571.19;5054801;28;8957;-63
2022/05/30 09:02:14;;;;;;;;;4.00;4.00;;;;;15.36;57.12;99574.50;5041871;28;8844;-64
2022/05/30 09:04:42;;;;;;;;;6.00;6.00;;;;;15.24;57.46;99578.41;5042815;28;8821;-64
2022/05/30 09:07:09;;;;;;;;;4.50;3.50;;;;;15.15;57.85;99583.88;5043875;28;9950;-64
2022/05/30 09:09:37;;;;;;;;;8.00;6.50;;;;;15.11;58.18;99579.84;5048523;28;8960;-64
2022/05/30 09:12:05;;;;;;;;;5.00;2.00;;;;;15.13;57.93;99583.22;5034689;28;8859;-64
2022/05/30 09:14:32;;;;;;;;;6.00;5.00;;;;;15.17;57.86;99577.38;5034824;28;8868;-64
2022/05/30 09:17:00;;;;;;;;;6.75;6.50;;;;;15.26;57.11;99572.91;5035623;28;8832;-63
2022/05/30 09:19:29;;;;;;;;;16.25;14.00;;;;;15.38;57.29;99575.16;5035023;28;8931;-64
2022/05/30 09:22:01;;;;;;;;;11.25;10.50;;;;;15.50;57.25;99575.72;5035287;28;8855;-64
2022/05/30 09:24:29;;;;;;;;;9.00;7.50;;;;;15.62;56.98;99583.31;5035323;28;8863;-64
2022/05/30 09:26:58;;;;;;;;;11.00;10.00;;;;;15.72;56.34;99570.59;5045894;28;8864;-63
2022/05/30 09:29:27;;;;;;;;;6.50;6.25;;;;;15.74;56.24;99573.97;5067909;28;9604;-64
2022/05/30 09:31:55;;;;;;;;;6.00;5.50;;;;;15.83;55.97;99569.44;5074123;28;8844;-63
2022/05/30 09:34:24;;;;;;;;;8.50;5.00;;;;;15.88;56.00;99572.47;5073684;28;8824;-64
2022/05/30 09:36:52;;;;;;;;;3.50;3.25;;;;;15.90;55.97;99567.78;5074228;28;8854;-63
2022/05/30 09:39:19;;;;;;;;;4.00;3.50;;;;;15.95;55.99;99565.44;5074596;28;8846;-64
2022/05/30 09:41:48;;;;;;;;;9.75;8.50;;;;;15.91;55.84;99567.59;5070715;28;8866;-64
2022/05/30 09:44:16;;;;;;;;;10.00;9.25;;;;;15.82;55.77;99565.06;5073567;28;8986;-63
2022/05/30 09:46:44;;;;;;;;;10.00;8.50;;;;;15.74;56.67;99562.38;5073991;28;8840;-64
2022/05/30 09:49:12;;;;;;;;;7.50;7.00;;;;;15.65;56.91;99561.53;5057479;28;8930;-64
2022/05/30 09:51:40;;;;;;;;;6.25;5.00;;;;;15.53;56.26;99570.84;5054043;28;8846;-63
2022/05/30 09:54:08;;;;;;;;;6.00;5.00;;;;;15.42;57.35;99575.69;5054078;28;8834;-64
2022/05/30 09:56:36;;;;;;;;;5.75;4.00;;;;;15.26;56.61;99572.91;5053306;28;8846;-64
2022/05/30 09:59:04;;;;;;;;;6.50;6.50;;;;;15.11;57.23;99571.81;5054543;28;8876;-63
2022/05/30 10:01:31;;;;;;;;;8.50;7.00;;;;;15.00;57.72;99586.34;5054355;28;8988;-64
2022/05/30 10:04:01;;;;;;;;;5.00;5.00;;;;;14.91;57.78;99583.75;5053695;28;8976;-63
2022/05/30 10:06:28;;;;;;;;;4.00;4.00;;;;;14.85;57.87;99585.22;5053355;28;8861;-64
2022/05/30 10:08:56;;;;;;;;;6.50;6.00;;;;;14.78;57.98;99589.53;5052724;28;8850;-64
2022/05/30 10:11:25;;;;;;;;;5.00;4.00;;;;;14.70;58.40;99585.94;5052298;28;9038;-64
2022/05/30 10:13:54;;;;;;;;;3.50;3.50;;;;;14.62;58.40;99584.06;5053531;28;8874;-64
2022/05/30 10:16:21;;;;;;;;;6.25;6.00;;;;;14.57;58.33;99601.63;5053071;28;8890;-64
2022/05/30 10:18:50;;;;;;;;;5.50;5.50;;;;;14.47;58.42;99590.97;5053418;28;8846;-64
2022/05/30 10:21:18;;;;;;;;;5.33;5.33;;;;;14.41;58.64;99596.13;5051357;28;8854;-64
2022/05/30 10:29:16;;;;;;;;;1.00;0.75;;;;;14.27;58.45;99599.34;5046937;28;9531;-65
2022/05/30 10:31:44;;;;;;;;;2.00;2.00;;;;;14.25;58.82;99602.16;5053146;28;8853;-64
2022/05/30 10:34:12;;;;;;;;;1.50;1.50;;;;;14.24;58.65;99600.50;5052491;28;8822;-64
2022/05/30 10:36:40;;;;;;;;;3.25;3.00;;;;;14.21;58.46;99599.94;5053714;28;8854;-64
2022/05/30 10:39:08;;;;;;;;;4.50;4.00;;;;;14.23;58.40;99597.97;5053188;28;8846;-64
2022/05/30 10:41:35;;;;;;;;;4.50;4.00;;;;;14.30;58.30;99605.25;5054041;28;8841;-64
2022/05/30 10:44:04;;;;;;;;;4.50;3.00;;;;;14.38;58.17;99601.78;5053717;28;9530;-64
2022/05/30 10:46:32;;;;;;;;;4.00;4.00;;;;;14.43;57.69;99604.84;5054462;28;9597;-64
2022/05/30 10:49:00;;;;;;;;;2.25;1.75;;;;;14.47;58.18;99608.88;5054124;28;8845;-65
2022/05/30 10:51:28;;;;;;;;;3.00;3.00;;;;;14.51;57.33;99605.72;5054217;28;8853;-64
2022/05/30 10:53:56;;;;;;;;;5.25;3.00;;;;;14.57;57.28;99609.66;5054387;28;8968;-64
2022/05/30 10:56:24;;;;;;;;;1.00;1.00;;;;;14.68;56.88;99609.41;5053877;28;8846;-64
2022/05/30 10:58:51;;;;;;;;;4.00;3.50;;;;;14.87;56.72;99610.03;5044546;28;8867;-64
2022/05/30 11:01:20;;;;;;;;;0.75;0.75;;;;;15.08;55.93;99615.03;5037743;28;8852;-65
2022/05/30 11:03:47;;;;;;;;;1.00;1.00;;;;;15.26;55.89;99600.53;5037617;28;8857;-63
2022/05/30 11:06:15;;;;;;;;;2.50;2.50;;;;;15.44;55.80;99603.19;5037437;28;8832;-63
2022/05/30 11:08:44;;;;;;;;;2.50;2.50;;;;;15.67;54.98;99598.91;5037612;28;8860;-66
2022/05/30 11:11:11;;;;;;;;;4.50;4.00;;;;;15.93;54.41;99594.31;5038183;28;8871;-64
2022/05/30 11:13:39;;;;;;;;;0.00;0.00;;;;;16.12;54.17;99594.84;5037234;28;8880;-64
2022/05/30 11:16:07;;;;;;;;;3.00;0.00;;;;;16.28;54.04;99594.88;5037064;28;8844;-64
2022/05/30 11:18:36;;;;;;;;;0.75;0.75;;;;;16.45;53.70;99594.75;5036415;28;8836;-64
2022/05/30 11:21:03;;;;;;;;;1.00;1.00;;;;;16.68;53.31;99586.84;5036819;28;8971;-63
2022/05/30 11:23:31;;;;;;;;;1.00;1.00;;;;;16.84;52.79;99590.34;5036681;28;8856;-65
2022/05/30 11:25:58;;;;;;;;;1.00;1.00;;;;;16.95;52.99;99586.47;5037564;28;9020;-64
2022/05/30 11:28:26;;;;;;;;;1.00;1.00;;;;;16.96;52.64;99599.78;5037353;28;8836;-64
2022/05/30 11:30:59;;;;;;;;;1.00;0.50;;;;;16.96;52.49;99596.22;5036792;28;8867;-63
2022/05/30 11:33:28;;;;;;;;;2.00;2.00;;;;;16.94;53.11;99598.25;5037558;28;8943;-64
2022/05/30 11:35:55;;;;;;;;;1.00;1.00;;;;;16.95;53.23;99597.25;5043875;28;9861;-63
2022/05/30 11:38:23;;;;;;;;;2.50;1.00;;;;;16.95;53.14;99605.31;5036857;28;8868;-64
2022/05/30 11:40:51;;;;;;;;;1.00;1.00;;;;;16.98;52.67;99595.06;5036149;28;8832;-64
2022/05/30 11:43:19;;;;;;;;;2.00;1.00;;;;;17.14;52.67;99594.16;5036421;28;8977;-64
2022/05/30 11:45:46;;;;;;;;;1.00;1.00;;;;;17.30;52.80;99608.41;5036266;28;8852;-64
2022/05/30 11:48:16;;;;;;;;;3.00;3.00;;;;;17.42;52.44;99600.84;5035828;28;8924;-64
2022/05/30 11:50:43;;;;;;;;;4.00;3.60;;;;;17.55;51.91;99596.56;5036467;28;8863;-64
2022/05/30 11:53:11;;;;;;;;;1.00;1.00;;;;;17.73;51.76;99601.72;5035623;28;8844;-64
2022/05/30 11:55:41;;;;;;;;;3.20;2.20;;;;;17.85;51.56;99598.47;5043965;28;8852;-64
2022/05/30 11:58:09;;;;;;;;;1.00;1.00;;;;;17.89;51.64;99601.63;5035855;28;8971;-64
2022/05/30 12:00:37;;;;;;;;;1.00;1.00;;;;;17.82;51.32;99606.91;5050177;28;8838;-64
2022/05/30 12:03:05;;;;;;;;;2.60;2.60;;;;;17.70;51.95;99605.59;5046319;28;8910;-65
2022/05/30 12:05:33;;;;;;;;;1.00;1.00;;;;;17.61;51.67;99609.34;5037358;28;8836;-65
2022/05/30 12:08:01;;;;;;;;;1.40;1.00;;;;;17.60;52.24;99604.16;5048818;28;8961;-68